createdAt,value
2017-08-29T00:00:08.241Z,94.64
2017-08-29T00:01:08.285Z,94.96
2017-08-29T00:02:07.421Z,94.57
2017-08-29T00:03:07.450Z,95.64
2017-08-29T00:04:07.483Z,95.66
2017-08-29T00:05:09.823Z,96.19
2017-08-29T00:06:07.456Z,95.95
2017-08-29T00:07:07.910Z,95.84
2017-08-29T00:08:07.879Z,94.84
2017-08-29T00:09:07.830Z,95.60
2017-08-29T00:10:07.875Z,95.81
2017-08-29T00:11:07.832Z,95.57
2017-08-29T00:12:07.862Z,95.32
2017-08-29T00:13:07.898Z,95.90
2017-08-29T00:14:07.934Z,95.40
2017-08-29T00:15:07.570Z,95.54
2017-08-29T00:16:07.407Z,95.50
2017-08-29T00:17:07.449Z,94.17
2017-08-29T00:18:07.532Z,94.64
2017-08-29T00:19:07.455Z,95.02
2017-08-29T00:20:07.503Z,94.89
2017-08-29T00:21:07.530Z,93.49
2017-08-29T00:22:07.973Z,93.09
2017-08-29T00:23:07.916Z,93.14
2017-08-29T00:24:07.883Z,94.11
2017-08-29T00:25:07.939Z,93.89
2017-08-29T00:26:07.874Z,94.99
2017-08-29T00:27:07.907Z,94.76
2017-08-29T00:28:07.964Z,93.80
2017-08-29T00:29:07.902Z,95.40
2017-08-29T00:30:08.336Z,95.34
2017-08-29T00:31:07.536Z,93.93
2017-08-29T00:32:07.498Z,94.25
2017-08-29T00:33:07.553Z,94.52
2017-08-29T00:34:07.489Z,95.88
2017-08-29T00:35:07.517Z,95.92
2017-08-29T00:36:07.457Z,95.89
2017-08-29T00:37:07.985Z,95.03
2017-08-29T00:38:07.910Z,96.54
2017-08-29T00:39:07.934Z,96.26
2017-08-29T00:40:07.961Z,95.80
2017-08-29T00:41:07.899Z,95.82
2017-08-29T00:42:07.933Z,95.22
2017-08-29T00:43:07.983Z,96.03
2017-08-29T00:44:07.914Z,94.65
2017-08-29T00:45:08.653Z,95.61
2017-08-29T00:46:07.582Z,95.74
2017-08-29T00:47:08.014Z,94.70
2017-08-29T00:48:07.595Z,96.47
2017-08-29T00:49:07.564Z,96.46
2017-08-29T00:50:07.620Z,97.03
2017-08-29T00:51:07.552Z,96.84
2017-08-29T00:52:07.543Z,96.16
2017-08-29T00:53:07.582Z,96.43
2017-08-29T00:54:07.611Z,96.07
2017-08-29T00:55:07.653Z,95.24
2017-08-29T00:56:07.577Z,94.88
2017-08-29T00:57:08.116Z,95.85
2017-08-29T00:58:08.061Z,96.41
2017-08-29T00:59:07.986Z,96.47
2017-08-29T01:02:30.537Z,96.84
2017-08-29T01:02:31.149Z,96.94
2017-08-29T01:02:31.764Z,97.08
2017-08-29T01:03:07.550Z,97.06
2017-08-29T01:04:08.086Z,96.47
2017-08-29T01:08:22.128Z,96.35
2017-08-29T01:08:23.139Z,96.20
2017-08-29T01:08:23.748Z,96.11
2017-08-29T01:08:24.453Z,96.41
2017-08-29T01:09:07.655Z,96.20
2017-08-29T01:10:08.100Z,96.23
2017-08-29T01:15:08.583Z,96.52
2017-08-29T01:15:09.593Z,96.85
2017-08-29T01:15:10.202Z,96.69
2017-08-29T01:15:10.806Z,96.94
2017-08-29T01:15:11.416Z,95.79
2017-08-29T01:16:07.644Z,95.78
2017-08-29T01:20:02.878Z,96.26
2017-08-29T01:20:03.996Z,95.09
2017-08-29T01:20:04.605Z,97.32
2017-08-29T01:20:07.717Z,95.09
2017-08-29T01:21:08.053Z,94.41
2017-08-29T01:22:07.680Z,94.33
2017-08-29T01:26:03.973Z,93.60
2017-08-29T01:26:04.583Z,94.43
2017-08-29T01:26:05.187Z,94.28
2017-08-29T01:26:07.607Z,94.48
2017-08-29T01:27:08.037Z,94.46
2017-08-29T01:28:08.074Z,94.94
2017-08-29T01:32:25.738Z,94.25
2017-08-29T01:32:26.752Z,97.40
2017-08-29T01:32:27.362Z,95.58
2017-08-29T01:32:27.970Z,95.13
2017-08-29T01:33:07.697Z,94.24
2017-08-29T01:38:15.146Z,94.36
2017-08-29T01:38:16.162Z,93.70
2017-08-29T01:38:16.769Z,94.25
2017-08-29T01:38:17.481Z,94.90
2017-08-29T01:38:18.089Z,94.62
2017-08-29T01:39:07.694Z,93.96
2017-08-29T01:40:08.151Z,94.13
2017-08-29T01:45:04.867Z,94.51
2017-08-29T01:45:05.879Z,94.20
2017-08-29T01:45:06.488Z,94.38
2017-08-29T01:45:07.102Z,94.71
2017-08-29T01:45:07.808Z,94.82
2017-08-29T01:46:08.143Z,95.99
2017-08-29T01:51:06.676Z,94.81
2017-08-29T01:51:07.282Z,95.72
2017-08-29T01:51:07.886Z,95.22
2017-08-29T01:51:08.496Z,95.25
2017-08-29T01:51:09.101Z,96.84
2017-08-29T01:52:08.135Z,96.49
2017-08-29T01:56:21.068Z,95.13
2017-08-29T01:56:22.079Z,96.13
2017-08-29T01:56:22.690Z,96.45
2017-08-29T01:56:23.295Z,96.38
2017-08-29T01:57:07.690Z,96.53
2017-08-29T01:58:08.124Z,96.05
2017-08-29T02:00:46.706Z,96.17
2017-08-29T02:00:47.729Z,94.48
2017-08-29T02:01:07.770Z,95.97
2017-08-29T02:02:08.207Z,93.42
2017-08-29T02:03:08.142Z,96.31
2017-08-29T02:04:08.169Z,95.63
2017-08-29T02:05:08.205Z,94.54
2017-08-29T02:06:08.170Z,94.57
2017-08-29T02:07:08.423Z,94.81
2017-08-29T02:08:08.168Z,96.28
2017-08-29T02:09:08.201Z,95.49
2017-08-29T02:10:08.239Z,96.66
2017-08-29T02:11:08.209Z,96.91
2017-08-29T02:12:08.243Z,95.44
2017-08-29T02:13:07.778Z,94.17
2017-08-29T02:14:07.838Z,95.43
2017-08-29T02:15:07.774Z,95.64
2017-08-29T02:16:07.827Z,96.24
2017-08-29T02:17:08.569Z,96.18
2017-08-29T02:18:07.800Z,96.57
2017-08-29T02:19:07.835Z,96.81
2017-08-29T02:20:07.820Z,96.20
2017-08-29T02:21:08.256Z,95.86
2017-08-29T02:22:08.288Z,95.68
2017-08-29T02:23:08.420Z,93.94
2017-08-29T02:24:08.257Z,93.91
2017-08-29T02:25:08.199Z,94.16
2017-08-29T02:26:08.255Z,94.17
2017-08-29T02:27:08.326Z,96.34
2017-08-29T02:28:08.263Z,94.39
2017-08-29T02:29:08.299Z,94.16
2017-08-29T02:30:07.842Z,94.33
2017-08-29T02:31:07.882Z,94.84
2017-08-29T02:32:08.528Z,95.74
2017-08-29T02:33:07.861Z,95.25
2017-08-29T02:34:08.809Z,94.78
2017-08-29T02:35:07.849Z,94.83
2017-08-29T02:36:07.828Z,96.25
2017-08-29T02:37:08.361Z,96.12
2017-08-29T02:38:08.300Z,95.40
2017-08-29T02:39:08.331Z,96.38
2017-08-29T02:40:08.466Z,95.28
2017-08-29T02:41:08.407Z,94.60
2017-08-29T02:42:08.346Z,94.32
2017-08-29T02:43:08.400Z,94.28
2017-08-29T02:44:08.335Z,94.60
2017-08-29T02:45:08.299Z,94.85
2017-08-29T02:46:08.427Z,95.27
2017-08-29T02:47:08.560Z,96.57
2017-08-29T02:48:07.899Z,97.12
2017-08-29T02:49:07.930Z,97.22
2017-08-29T02:50:07.883Z,96.09
2017-08-29T02:51:07.929Z,96.65
2017-08-29T02:52:07.965Z,96.96
2017-08-29T02:53:07.894Z,96.43
2017-08-29T02:54:08.328Z,96.78
2017-08-29T02:55:08.374Z,96.94
2017-08-29T02:56:08.394Z,95.71
2017-08-29T02:57:08.629Z,95.52
2017-08-29T02:58:08.359Z,94.64
2017-08-29T02:59:08.310Z,96.59
2017-08-29T03:00:08.372Z,96.93
2017-08-29T03:01:08.316Z,97.30
2017-08-29T03:02:08.358Z,96.00
2017-08-29T03:03:07.896Z,95.80
2017-08-29T03:04:07.932Z,95.37
2017-08-29T03:05:07.969Z,94.82
2017-08-29T03:06:07.929Z,95.33
2017-08-29T03:07:07.981Z,94.95
2017-08-29T03:08:07.924Z,96.69
2017-08-29T03:09:07.968Z,95.98
2017-08-29T03:10:08.302Z,96.53
2017-08-29T03:11:07.945Z,96.91
2017-08-29T03:12:08.374Z,97.13
2017-08-29T03:13:08.403Z,95.92
2017-08-29T03:14:08.340Z,96.13
2017-08-29T03:15:08.373Z,96.51
2017-08-29T03:16:08.414Z,97.22
2017-08-29T03:17:08.362Z,95.99
2017-08-29T03:18:08.398Z,97.43
2017-08-29T03:19:08.445Z,96.67
2017-08-29T03:20:07.982Z,96.57
2017-08-29T03:21:08.015Z,96.63
2017-08-29T03:22:08.679Z,96.63
2017-08-29T03:23:08.014Z,94.73
2017-08-29T03:24:08.045Z,95.22
2017-08-29T03:25:08.054Z,97.95
2017-08-29T03:26:07.992Z,96.57
2017-08-29T03:27:08.034Z,96.68
2017-08-29T03:28:07.976Z,97.48
2017-08-29T03:29:08.419Z,97.26
2017-08-29T03:30:08.455Z,97.29
2017-08-29T03:31:08.592Z,97.32
2017-08-29T03:32:08.423Z,97.45
2017-08-29T03:33:08.464Z,97.48
2017-08-29T03:34:08.410Z,97.02
2017-08-29T03:35:08.455Z,97.44
2017-08-29T03:36:08.499Z,97.12
2017-08-29T03:37:08.552Z,97.07
2017-08-29T03:38:08.016Z,97.48
2017-08-29T03:39:08.052Z,97.32
2017-08-29T03:40:31.362Z,97.32
2017-08-29T03:42:08.892Z,97.81
2017-08-29T03:42:09.905Z,97.69
2017-08-29T03:42:10.514Z,97.90
2017-08-29T03:43:08.061Z,97.79
2017-08-29T03:44:08.100Z,97.63
2017-08-29T03:45:08.041Z,97.93
2017-08-29T03:46:08.882Z,97.88
2017-08-29T03:47:08.116Z,98.03
2017-08-29T03:48:08.553Z,97.36
2017-08-29T03:49:08.483Z,97.19
2017-08-29T03:50:08.531Z,97.06
2017-08-29T03:51:08.571Z,97.15
2017-08-29T03:52:08.611Z,97.71
2017-08-29T03:53:08.553Z,97.86
2017-08-29T03:54:08.642Z,97.67
2017-08-29T03:55:08.577Z,97.41
2017-08-29T03:56:08.119Z,97.23
2017-08-29T03:57:08.154Z,97.17
2017-08-29T03:58:08.089Z,97.71
2017-08-29T03:59:08.127Z,97.84
2017-08-29T04:00:08.165Z,96.52
2017-08-29T04:01:08.089Z,97.21
2017-08-29T04:02:08.123Z,97.23
2017-08-29T04:03:08.158Z,97.64
2017-08-29T04:04:08.589Z,97.68
2017-08-29T04:05:08.632Z,97.30
2017-08-29T04:06:08.565Z,97.58
2017-08-29T04:07:08.706Z,97.39
2017-08-29T04:08:08.538Z,97.75
2017-08-29T04:09:08.609Z,97.34
2017-08-29T04:10:08.652Z,98.12
2017-08-29T04:11:08.599Z,97.87
2017-08-29T04:12:08.129Z,97.53
2017-08-29T04:13:08.180Z,97.25
2017-08-29T04:14:08.120Z,97.96
2017-08-29T04:15:08.371Z,97.68
2017-08-29T04:16:08.203Z,97.45
2017-08-29T04:17:08.150Z,97.70
2017-08-29T04:18:08.196Z,97.63
2017-08-29T04:19:08.246Z,97.91
2017-08-29T04:20:08.292Z,97.62
2017-08-29T04:21:08.632Z,97.33
2017-08-29T04:22:08.761Z,97.78
2017-08-29T04:23:08.593Z,97.51
2017-08-29T04:24:08.657Z,97.86
2017-08-29T04:25:08.595Z,97.45
2017-08-29T04:26:08.670Z,98.18
2017-08-29T04:27:08.704Z,98.38
2017-08-29T04:28:08.657Z,98.52
2017-08-29T04:29:08.181Z,98.81
2017-08-29T04:30:08.743Z,98.14
2017-08-29T04:31:08.285Z,97.91
2017-08-29T04:32:08.226Z,97.63
2017-08-29T04:33:08.273Z,97.87
2017-08-29T04:34:08.213Z,98.14
2017-08-29T04:35:08.262Z,98.05
2017-08-29T04:36:08.216Z,97.69
2017-08-29T04:37:08.637Z,98.44
2017-08-29T04:38:08.678Z,97.80
2017-08-29T04:39:08.629Z,98.54
2017-08-29T04:40:08.706Z,98.44
2017-08-29T04:41:09.046Z,98.20
2017-08-29T04:42:08.709Z,97.45
2017-08-29T04:43:08.832Z,98.39
2017-08-29T04:44:08.682Z,98.44
2017-08-29T04:45:08.625Z,97.21
2017-08-29T04:46:08.693Z,97.71
2017-08-29T04:47:08.257Z,97.73
2017-08-29T04:48:08.306Z,97.47
2017-08-29T04:49:08.317Z,97.52
2017-08-29T04:50:08.395Z,97.80
2017-08-29T04:51:08.238Z,97.46
2017-08-29T04:52:08.385Z,97.37
2017-08-29T04:53:08.451Z,97.41
2017-08-29T04:54:08.495Z,96.95
2017-08-29T04:55:08.384Z,96.51
2017-08-29T04:56:08.426Z,97.47
2017-08-29T04:57:08.373Z,96.97
2017-08-29T04:58:09.022Z,96.77
2017-08-29T04:59:09.279Z,97.00
2017-08-29T05:00:09.156Z,97.10
2017-08-29T05:01:08.790Z,97.19
2017-08-29T05:02:08.856Z,96.78
2017-08-29T05:03:08.848Z,97.13
2017-08-29T05:04:08.797Z,96.81
2017-08-29T05:05:08.850Z,96.58
2017-08-29T05:06:08.410Z,95.98
2017-08-29T05:07:08.465Z,95.34
2017-08-29T05:08:08.422Z,94.94
2017-08-29T05:09:08.447Z,95.29
2017-08-29T05:10:08.364Z,94.66
2017-08-29T05:11:08.417Z,94.10
2017-08-29T05:12:08.340Z,94.50
2017-08-29T05:13:08.729Z,94.19
2017-08-29T05:14:08.453Z,94.15
2017-08-29T05:15:08.353Z,94.41
2017-08-29T05:16:09.220Z,93.99
2017-08-29T05:17:09.255Z,93.89
2017-08-29T05:18:09.328Z,92.80
2017-08-29T05:19:09.268Z,94.04
2017-08-29T05:20:09.250Z,93.35
2017-08-29T05:21:08.970Z,94.24
2017-08-29T05:22:08.411Z,93.44
2017-08-29T05:23:08.472Z,92.90
2017-08-29T05:24:08.479Z,92.51
2017-08-29T05:25:08.490Z,93.44
2017-08-29T05:26:08.443Z,92.81
2017-08-29T05:27:08.405Z,92.78
2017-08-29T05:28:08.559Z,93.25
2017-08-29T05:29:08.513Z,91.91
2017-08-29T05:30:08.465Z,92.31
2017-08-29T05:31:08.528Z,91.88
2017-08-29T05:32:08.493Z,91.72
2017-08-29T05:33:09.519Z,92.12
2017-08-29T05:34:09.299Z,92.92
2017-08-29T05:35:09.291Z,91.69
2017-08-29T05:36:09.284Z,91.80
2017-08-29T05:37:08.821Z,92.36
2017-08-29T05:38:08.864Z,92.08
2017-08-29T05:39:08.925Z,92.53
2017-08-29T05:40:08.524Z,92.66
2017-08-29T05:41:08.490Z,92.48
2017-08-29T05:42:08.507Z,91.44
2017-08-29T05:43:08.555Z,91.44
2017-08-29T05:44:08.544Z,91.12
2017-08-29T05:45:08.492Z,91.29
2017-08-29T05:46:10.175Z,91.62
2017-08-29T05:47:08.450Z,89.05
2017-08-29T05:48:08.621Z,90.44
2017-08-29T05:49:08.462Z,90.55
2017-08-29T05:50:09.321Z,91.17
2017-08-29T05:51:09.475Z,89.74
2017-08-29T05:52:11.754Z,88.89
2017-08-29T05:53:08.568Z,89.35
2017-08-29T05:54:09.342Z,89.21
2017-08-29T05:55:09.484Z,89.52
2017-08-29T05:56:08.933Z,87.92
2017-08-29T05:57:08.480Z,88.22
2017-08-29T05:58:08.527Z,88.00
2017-08-29T05:59:08.563Z,87.33
2017-08-29T06:00:08.539Z,86.78
2017-08-29T06:01:08.624Z,87.37
2017-08-29T06:02:20.324Z,88.04
2017-08-29T15:27:37.458Z,50.49
2017-08-29T15:28:09.746Z,51.14
2017-08-29T15:29:11.016Z,53.65
2017-08-29T15:30:10.196Z,55.29
2017-08-29T15:31:12.024Z,56.42
2017-08-29T15:32:10.241Z,55.88
2017-08-29T15:33:11.225Z,55.85
2017-08-29T15:34:10.193Z,55.93
2017-08-29T15:35:10.470Z,54.84
2017-08-29T15:36:10.230Z,58.40
2017-08-29T15:37:10.274Z,57.72
2017-08-29T15:38:10.177Z,58.78
2017-08-29T15:39:10.415Z,59.09
2017-08-29T15:40:10.219Z,54.66
2017-08-29T15:41:11.209Z,53.11
2017-08-29T15:42:11.242Z,52.83
2017-08-29T15:43:11.108Z,55.88
2017-08-29T15:44:10.600Z,56.03
2017-08-29T15:45:11.543Z,55.22
2017-08-29T15:46:27.037Z,55.40
2017-08-29T15:47:10.325Z,56.14
2017-08-29T15:48:10.639Z,55.77
2017-08-29T15:49:12.123Z,56.37
2017-08-29T15:50:10.297Z,56.99
2017-08-29T15:51:10.490Z,58.63
2017-08-29T15:52:10.294Z,59.04
2017-08-29T15:53:10.399Z,57.73
2017-08-29T15:54:10.290Z,57.51
2017-08-29T15:55:10.905Z,57.26
2017-08-29T15:56:11.066Z,57.68
2017-08-29T15:57:11.311Z,57.16
2017-08-29T15:58:11.187Z,58.04
2017-08-29T15:59:11.403Z,59.20
2017-08-29T16:00:11.254Z,59.20
2017-08-29T16:01:11.342Z,60.30
2017-08-29T16:02:10.704Z,60.01
2017-08-29T16:03:11.354Z,60.89
2017-08-29T16:04:10.237Z,60.66
2017-08-29T16:05:11.185Z,60.20
2017-08-29T16:06:10.288Z,60.08
2017-08-29T16:07:10.404Z,60.48
2017-08-29T16:08:10.284Z,61.79
2017-08-29T16:09:10.483Z,62.67
2017-08-29T16:10:10.292Z,62.89
2017-08-29T16:11:10.627Z,64.16
2017-08-29T16:12:10.303Z,63.76
2017-08-29T16:13:10.680Z,64.93
2017-08-29T16:14:10.270Z,65.81
2017-08-29T16:15:11.433Z,65.11
2017-08-29T16:16:11.181Z,65.53
2017-08-29T16:17:11.449Z,63.52
2017-08-29T16:18:11.296Z,65.04
2017-08-29T16:19:11.273Z,65.31
2017-08-29T16:20:10.780Z,65.21
2017-08-29T16:21:11.557Z,66.19
2017-08-29T16:22:10.266Z,65.74
2017-08-29T16:23:12.158Z,65.86
2017-08-29T16:24:10.503Z,66.98
2017-08-29T16:25:10.517Z,66.29
2017-08-29T16:26:10.319Z,67.11
2017-08-29T16:27:10.537Z,67.10
2017-08-29T16:28:10.531Z,67.39
2017-08-29T16:29:10.541Z,66.56
2017-08-29T16:30:10.326Z,66.80
2017-08-29T16:31:11.627Z,66.78
2017-08-29T16:32:11.189Z,66.97
2017-08-29T16:33:11.637Z,67.14
2017-08-29T16:34:11.424Z,66.91
2017-08-29T16:35:11.236Z,66.22
2017-08-29T16:36:10.963Z,65.96
2017-08-29T16:37:11.390Z,66.26
2017-08-29T16:38:10.866Z,65.67
2017-08-29T16:39:11.402Z,67.05
2017-08-29T16:40:10.437Z,66.01
2017-08-29T16:41:11.491Z,66.40
2017-08-29T16:42:10.525Z,66.18
2017-08-29T16:43:10.645Z,66.21
2017-08-29T16:44:10.370Z,66.25
2017-08-29T16:45:11.930Z,65.71
2017-08-29T16:46:10.435Z,66.00
2017-08-29T16:47:10.766Z,65.91
2017-08-29T16:48:10.489Z,66.60
2017-08-29T16:49:10.474Z,67.27
2017-08-29T16:50:10.375Z,67.35
2017-08-29T16:51:11.378Z,66.00
2017-08-29T16:52:10.878Z,64.54
2017-08-29T16:53:11.391Z,63.40
2017-08-29T16:54:10.392Z,62.45
2017-08-29T16:55:11.694Z,63.51
2017-08-29T16:56:10.407Z,63.05
2017-08-29T16:57:11.423Z,64.80
2017-08-29T16:58:10.534Z,63.74
2017-08-29T16:59:10.654Z,62.82
2017-08-29T17:00:10.619Z,62.66
2017-08-29T17:01:11.648Z,62.71
2017-08-29T17:02:10.495Z,60.91
2017-08-29T17:03:10.775Z,60.63
2017-08-29T17:04:10.452Z,60.43
2017-08-29T17:05:11.471Z,60.31
2017-08-29T17:06:11.323Z,60.21
2017-08-29T17:07:11.485Z,60.43
2017-08-29T17:08:11.372Z,59.56
2017-08-29T17:09:11.586Z,60.01
2017-08-29T17:10:10.928Z,59.79
2017-08-29T17:11:11.601Z,61.87
2017-08-29T17:12:11.031Z,61.04
2017-08-29T17:13:10.549Z,61.47
2017-08-29T17:14:10.522Z,59.92
2017-08-29T17:15:12.028Z,60.90
2017-08-29T17:16:10.474Z,60.56
2017-08-29T17:17:10.684Z,59.97
2017-08-29T17:18:10.604Z,60.54
2017-08-29T17:19:10.700Z,61.16
2017-08-29T17:20:10.565Z,62.29
2017-08-29T17:21:10.797Z,61.04
2017-08-29T17:22:10.486Z,61.87
2017-08-29T17:23:11.410Z,61.99
2017-08-29T17:24:11.324Z,61.96
2017-08-29T17:25:12.286Z,61.76
2017-08-29T17:26:10.922Z,62.79
2017-08-29T17:27:11.662Z,62.28
2017-08-29T17:28:10.534Z,61.52
2017-08-29T17:29:11.651Z,62.35
2017-08-29T17:30:11.765Z,62.44
2017-08-29T17:31:11.696Z,64.10
2017-08-29T17:32:10.496Z,65.10
2017-08-29T17:33:10.807Z,63.29
2017-08-29T17:34:10.586Z,64.38
2017-08-29T17:35:10.550Z,64.55
2017-08-29T17:36:10.565Z,62.60
2017-08-29T17:37:11.551Z,62.88
2017-08-29T17:38:11.354Z,63.57
2017-08-29T17:39:11.397Z,62.87
2017-08-29T17:40:11.479Z,62.85
2017-08-29T17:41:11.737Z,61.50
2017-08-29T17:42:11.392Z,61.05
2017-08-29T17:43:11.619Z,61.08
2017-08-29T17:44:10.554Z,60.98
2017-08-29T17:45:11.683Z,61.99
2017-08-29T17:46:10.529Z,60.45
2017-08-29T17:47:10.775Z,59.95
2017-08-29T17:48:10.629Z,60.97
2017-08-29T17:49:10.670Z,60.78
2017-08-29T17:50:10.704Z,60.82
2017-08-29T17:51:10.803Z,60.10
2017-08-29T17:52:10.580Z,59.62
2017-08-29T17:53:11.689Z,59.68
2017-08-29T17:54:11.408Z,59.24
2017-08-29T17:55:11.660Z,59.71
2017-08-29T17:56:11.418Z,60.32
2017-08-29T17:57:11.705Z,58.96
2017-08-29T17:58:11.473Z,58.84
2017-08-29T17:59:11.663Z,59.06
2017-08-29T18:00:11.021Z,61.11
2017-08-29T18:01:12.223Z,62.08
2017-08-29T18:02:10.613Z,63.20
2017-08-29T18:03:11.758Z,60.83
2017-08-29T18:04:10.767Z,62.70
2017-08-29T18:05:10.890Z,61.98
2017-08-29T18:06:10.606Z,63.29
2017-08-29T18:07:10.781Z,63.34
2017-08-29T18:08:10.617Z,63.92
2017-08-29T18:09:10.940Z,65.61
2017-08-29T18:10:10.677Z,65.64
2017-08-29T18:11:10.930Z,67.79
2017-08-29T18:12:10.690Z,66.58
2017-08-29T18:13:12.243Z,68.60
2017-08-29T18:14:11.541Z,69.06
2017-08-29T18:15:11.707Z,70.06
2017-08-29T18:16:11.082Z,70.33
2017-08-29T18:17:12.431Z,71.03
2017-08-29T18:18:10.709Z,71.29
2017-08-29T18:19:10.781Z,72.02
2017-08-29T18:20:10.704Z,72.67
2017-08-29T18:21:10.840Z,72.83
2017-08-29T18:22:10.651Z,74.12
2017-08-29T18:23:10.908Z,73.09
2017-08-29T18:24:10.686Z,73.89
2017-08-29T18:25:11.029Z,74.35
2017-08-29T18:26:10.740Z,75.06
2017-08-29T18:27:10.983Z,74.53
2017-08-29T18:28:10.675Z,75.14
2017-08-29T18:29:11.731Z,74.25
2017-08-29T18:30:11.479Z,75.48
2017-08-29T18:31:11.741Z,75.20
2017-08-29T18:32:11.553Z,75.13
2017-08-29T18:33:11.949Z,73.68
2017-08-29T18:34:11.279Z,75.71
2017-08-29T18:35:12.538Z,75.79
2017-08-29T18:36:10.731Z,76.42
2017-08-29T18:37:11.841Z,76.58
2017-08-29T18:38:10.716Z,76.65
2017-08-29T18:39:11.005Z,76.77
2017-08-29T18:40:10.685Z,77.17
2017-08-29T18:41:10.934Z,77.22
2017-08-29T18:42:11.145Z,77.30
2017-08-29T18:43:10.941Z,77.73
2017-08-29T18:44:10.728Z,77.31
2017-08-29T18:45:11.796Z,78.04
2017-08-29T18:46:12.055Z,78.29
2017-08-29T18:47:11.643Z,77.75
2017-08-29T18:48:11.132Z,78.20
2017-08-29T18:49:11.961Z,78.44
2017-08-29T18:50:11.204Z,78.10
2017-08-29T18:51:12.559Z,78.54
2017-08-29T18:52:10.745Z,78.76
2017-08-29T18:53:12.559Z,79.48
2017-08-29T18:54:10.735Z,79.90
2017-08-29T18:55:10.933Z,79.32
2017-08-29T18:56:10.769Z,79.41
2017-08-29T18:57:11.041Z,79.76
2017-08-29T18:58:10.776Z,79.81
2017-08-29T18:59:11.031Z,80.25
2017-08-29T19:00:10.788Z,80.12
2017-08-29T19:01:12.043Z,80.29
2017-08-29T19:02:11.626Z,79.99
2017-08-29T19:03:11.859Z,80.19
2017-08-29T19:04:12.094Z,80.34
2017-08-29T19:05:11.940Z,80.05
2017-08-29T19:06:11.759Z,80.84
2017-08-29T19:07:11.885Z,80.89
2017-08-29T19:08:10.864Z,81.46
2017-08-29T19:09:11.974Z,81.41
2017-08-29T19:10:10.803Z,81.03
2017-08-29T19:11:10.915Z,81.15
2017-08-29T19:12:10.949Z,80.90
2017-08-29T19:13:11.077Z,81.31
2017-08-29T19:14:10.816Z,81.75
2017-08-29T19:15:11.101Z,81.50
2017-08-29T19:16:10.897Z,81.37
2017-08-29T19:17:10.980Z,81.53
2017-08-29T19:18:10.875Z,81.61
2017-08-29T19:19:11.852Z,81.64
2017-08-29T19:20:11.659Z,81.64
2017-08-29T19:21:11.843Z,82.25
2017-08-29T19:22:15.042Z,82.38
2017-08-29T19:23:11.151Z,82.11
2017-08-29T19:24:11.681Z,82.30
2017-08-29T19:25:12.001Z,82.48
2017-08-29T19:26:10.930Z,82.18
2017-08-29T19:27:11.056Z,82.33
2017-08-29T19:28:10.970Z,82.19
2017-08-29T19:29:11.200Z,82.40
2017-08-29T19:30:10.866Z,82.35
2017-08-29T19:31:11.263Z,82.21
2017-08-29T19:32:10.899Z,82.08
2017-08-29T19:33:11.959Z,82.30
2017-08-29T19:34:20.130Z,82.40
2017-08-29T19:35:11.324Z,82.74
2017-08-29T19:36:11.939Z,82.47
2017-08-29T19:37:18.414Z,82.57
2017-08-29T19:38:11.280Z,82.61
2017-08-29T19:39:12.975Z,83.06
2017-08-29T19:40:11.051Z,83.09
2017-08-29T19:41:12.429Z,83.17
2017-08-29T19:42:11.501Z,83.34
2017-08-29T19:43:12.227Z,83.28
2017-08-29T19:44:11.973Z,83.56
2017-08-29T19:45:17.438Z,83.54
2017-08-29T19:46:10.947Z,83.74
2017-08-29T19:47:11.318Z,83.71
2017-08-29T19:48:11.006Z,83.96
2017-08-29T19:49:11.205Z,83.78
2017-08-29T19:50:10.916Z,83.79
2017-08-29T19:51:12.763Z,84.52
2017-08-29T19:52:11.377Z,84.91
2017-08-29T19:53:11.591Z,84.24
2017-08-29T19:54:10.957Z,84.18
2017-08-29T19:55:14.909Z,83.91
2017-08-29T19:56:11.005Z,84.25
2017-08-29T19:57:12.234Z,84.63
2017-08-29T19:58:10.963Z,84.08
2017-08-29T19:59:12.228Z,84.23
2017-08-29T20:00:12.374Z,84.56
2017-08-29T20:01:12.273Z,84.67
2017-08-29T20:02:11.083Z,84.37
2017-08-29T20:03:12.654Z,84.54
2017-08-29T20:04:10.946Z,84.82
2017-08-29T20:05:11.128Z,84.70
2017-08-29T20:06:16.962Z,84.77
2017-08-29T20:07:11.545Z,84.35
2017-08-29T20:08:12.023Z,84.66
2017-08-29T20:09:12.105Z,84.56
2017-08-29T20:10:11.936Z,84.57
2017-08-29T20:11:11.983Z,84.70
2017-08-29T20:12:11.946Z,84.71
2017-08-29T20:13:12.346Z,84.89
2017-08-29T20:14:10.944Z,84.69
2017-08-29T20:15:12.171Z,85.06
2017-08-29T20:16:10.991Z,86.16
2017-08-29T20:17:12.966Z,84.89
2017-08-29T20:18:11.018Z,84.84
2017-08-29T20:19:12.922Z,85.00
2017-08-29T20:20:11.008Z,85.01
2017-08-29T20:21:11.209Z,85.34
2017-08-29T20:22:11.096Z,85.59
2017-08-29T20:23:11.336Z,85.81
2017-08-29T20:24:11.053Z,86.28
2017-08-29T20:25:12.016Z,86.05
2017-08-29T20:26:11.796Z,86.05
2017-08-29T20:27:12.424Z,86.02
2017-08-29T20:28:12.236Z,86.29
2017-08-29T20:29:12.651Z,86.40
2017-08-29T20:30:11.035Z,86.14
2017-08-29T20:31:12.681Z,84.94
2017-08-29T20:32:11.162Z,86.15
2017-08-29T20:33:12.729Z,86.09
2017-08-29T20:34:11.070Z,86.12
2017-08-29T20:35:11.380Z,86.18
2017-08-29T20:36:11.004Z,87.52
2017-08-29T20:37:12.565Z,86.27
2017-08-29T20:38:11.105Z,86.13
2017-08-29T20:39:11.519Z,86.26
2017-08-29T20:40:11.108Z,86.26
2017-08-29T20:41:12.323Z,86.43
2017-08-29T20:42:11.900Z,86.40
2017-08-29T20:43:13.113Z,86.58
2017-08-29T20:44:11.111Z,86.84
2017-08-29T20:45:12.151Z,87.00
2017-08-29T20:46:11.072Z,87.09
2017-08-29T20:47:11.131Z,86.66
2017-08-29T20:48:11.099Z,87.11
2017-08-29T20:49:11.191Z,87.50
2017-08-29T20:50:11.172Z,87.88
2017-08-29T20:51:11.332Z,87.58
2017-08-29T20:52:11.152Z,87.99
2017-08-29T20:53:13.989Z,88.11
2017-08-29T20:54:11.112Z,88.32
2017-08-29T20:55:12.809Z,88.29
2017-08-29T20:56:11.158Z,88.18
2017-08-29T20:57:12.020Z,88.60
2017-08-29T20:58:11.908Z,88.16
2017-08-29T20:59:13.193Z,88.35
2017-08-29T21:00:11.140Z,88.75
2017-08-29T21:01:12.071Z,88.33
2017-08-29T21:02:11.697Z,88.82
2017-08-29T21:03:12.256Z,89.09
2017-08-29T21:04:11.184Z,88.97
2017-08-29T21:05:12.845Z,88.73
2017-08-29T21:06:11.175Z,89.23
2017-08-29T21:07:12.260Z,89.21
2017-08-29T21:08:11.188Z,89.32
2017-08-29T21:09:11.443Z,89.33
2017-08-29T21:10:11.185Z,89.21
2017-08-29T21:11:11.372Z,89.29
2017-08-29T21:12:11.151Z,88.83
2017-08-29T21:13:12.835Z,88.63
2017-08-29T21:14:11.446Z,88.94
2017-08-29T21:15:11.652Z,88.47
2017-08-29T21:16:11.240Z,88.83
2017-08-29T21:17:12.660Z,88.78
2017-08-29T21:18:11.577Z,88.55
2017-08-29T21:19:12.495Z,89.04
2017-08-29T21:20:11.171Z,88.89
2017-08-29T21:21:12.695Z,88.70
2017-08-29T21:22:11.271Z,88.85
2017-08-29T21:23:11.443Z,89.01
2017-08-29T21:24:11.205Z,89.19
2017-08-29T21:25:13.064Z,89.49
2017-08-29T21:26:11.294Z,89.26
2017-08-29T21:27:11.351Z,89.31
2017-08-29T21:28:11.223Z,89.10
2017-08-29T21:29:12.262Z,87.68
2017-08-29T21:30:12.205Z,89.17
2017-08-29T21:31:12.573Z,89.37
2017-08-29T21:32:12.164Z,89.31
2017-08-29T21:33:12.394Z,89.19
2017-08-29T21:34:11.667Z,89.71
2017-08-29T21:35:12.529Z,90.03
2017-08-29T21:36:11.184Z,89.94
2017-08-29T21:37:17.184Z,90.03
2017-08-29T21:38:11.206Z,90.47
2017-08-29T21:39:12.874Z,90.52
2017-08-29T21:40:11.320Z,90.63
2017-08-29T21:41:11.570Z,89.92
2017-08-29T21:42:11.230Z,90.63
2017-08-29T21:43:13.081Z,90.82
2017-08-29T21:44:11.328Z,90.89
2017-08-29T21:45:11.474Z,90.83
2017-08-29T21:46:11.311Z,90.62
2017-08-29T21:47:12.354Z,90.89
2017-08-29T21:48:12.208Z,91.28
2017-08-29T21:49:12.503Z,91.26
2017-08-29T21:50:11.628Z,91.01
2017-08-29T21:51:12.578Z,91.11
2017-08-29T21:52:11.244Z,90.80
2017-08-29T21:53:12.704Z,90.64
2017-08-29T21:54:11.241Z,90.57
2017-08-29T21:55:12.703Z,90.31
2017-08-29T21:56:11.238Z,90.45
2017-08-29T21:57:11.651Z,90.49
2017-08-29T21:57:46.994Z,90.49
2017-08-29T21:58:11.270Z,90.09
2017-08-29T21:59:11.728Z,90.47
2017-08-29T22:00:11.280Z,91.07
2017-08-29T22:01:12.950Z,90.65
2017-08-29T22:02:11.314Z,90.65
2017-08-29T22:03:11.691Z,90.94
2017-08-29T22:04:11.317Z,90.73
2017-08-29T22:05:12.280Z,90.49
2017-08-29T22:06:11.762Z,90.69
2017-08-29T22:07:12.597Z,91.01
2017-08-29T22:08:11.816Z,90.83
2017-08-29T22:09:12.438Z,90.79
2017-08-29T22:10:11.333Z,91.01
2017-08-29T22:11:12.647Z,90.86
2017-08-29T22:12:11.355Z,90.83
2017-08-29T22:13:12.662Z,91.22
2017-08-29T22:14:11.457Z,91.05